Time;durP1;ratioP1;P1;durP2;ratioP2;P2;SDS_P1;SDS_P2;PMS_P1;PMS_P2;Temp;Humidity;BMP_temperature;BMP_pressure;BME280_temperature;BME280_humidity;BME280_pressure;Samples;Min_cycle;Max_cycle;Signal;HPM_P1;HPM_P2
2021/03/11 00:01:12;;;;;;;22.77;16.88;;;;;;;6.40;77.54;100205.13;5253354;28;20035;-70
2021/03/11 00:03:43;;;;;;;21.60;16.33;;;;;;;6.40;77.88;100195.53;5254993;28;20036;-70
2021/03/11 00:06:14;;;;;;;22.73;17.00;;;;;;;6.38;78.79;100202.66;5256877;28;20048;-71
2021/03/11 00:08:45;;;;;;;24.00;16.95;;;;;;;6.39;78.83;100193.06;5254993;28;20029;-71
2021/03/11 00:11:17;;;;;;;21.38;16.42;;;;;;;6.40;78.69;100195.53;5257899;28;20025;-71
2021/03/11 00:13:48;;;;;;;23.83;16.35;;;;;;;6.34;79.83;100188.22;5261806;28;20025;-70
2021/03/11 00:16:19;;;;;;;23.05;17.40;;;;;;;6.38;80.04;100181.00;5258640;28;20112;-69
2021/03/11 00:18:50;;;;;;;24.90;16.85;;;;;;;6.37;80.01;100184.56;5259499;28;20029;-71
2021/03/11 00:21:22;;;;;;;23.00;17.65;;;;;;;6.36;79.79;100169.88;5257972;28;20771;-70
2021/03/11 00:23:53;;;;;;;23.30;16.52;;;;;;;6.33;80.32;100170.97;5260154;28;20535;-70
2021/03/11 00:26:24;;;;;;;22.67;15.95;;;;;;;6.34;80.57;100173.44;5262208;28;20087;-70
2021/03/11 00:28:55;;;;;;;22.27;16.73;;;;;;;6.33;80.58;100170.97;5258597;28;20029;-70
2021/03/11 00:31:27;;;;;;;21.63;16.65;;;;;;;6.32;81.27;100161.50;5257371;28;20049;-71
2021/03/11 00:33:58;;;;;;;23.50;17.63;;;;;;;6.31;81.20;100158.06;5259745;28;20033;-70
2021/03/11 01:59:39;;;;;;;17.95;13.90;;;;;;;6.41;87.21;99954.44;5255528;28;20053;-69
2021/03/11 02:02:10;;;;;;;17.00;13.48;;;;;;;6.40;86.64;99932.75;5256111;28;20029;-69
2021/03/11 02:04:42;;;;;;;18.35;13.80;;;;;;;6.40;86.52;99916.34;5262889;28;20017;-69
2021/03/11 02:07:13;;;;;;;15.80;13.02;;;;;;;6.41;87.03;99934.44;5251212;28;20032;-69
2021/03/11 02:09:44;;;;;;;21.70;15.07;;;;;;;6.41;86.75;99926.63;5261502;28;20028;-70
2021/03/11 02:12:34;;;;;;;17.08;13.52;;;;;;;6.45;86.64;99920.22;5255832;28;20124;-70
2021/03/11 02:15:28;;;;;;;19.17;14.10;;;;;;;6.48;87.50;99921.75;5240478;28;20024;-69
2021/03/11 02:18:16;;;;;;;16.40;13.70;;;;;;;6.47;87.04;99917.47;5258797;28;20025;-70
2021/03/11 02:21:34;;;;;;;17.17;13.57;;;;;;;6.50;86.98;99915.47;5253146;28;20440;-70
2021/03/11 02:24:20;;;;;;;16.60;12.93;;;;;;;6.47;87.56;99891.47;5241058;28;20040;-70
2021/03/11 02:27:29;;;;;;;17.20;14.48;;;;;;;6.50;88.28;99860.00;5253926;28;20060;-70
2021/03/11 02:30:02;;;;;;;18.15;13.55;;;;;;;6.48;88.52;99867.13;5254149;28;20024;-70
2021/03/11 02:32:37;;;;;;;18.20;14.18;;;;;;;6.48;88.20;99839.31;5258695;28;20028;-70
2021/03/11 02:35:10;;;;;;;17.90;14.20;;;;;;;6.47;88.49;99850.66;5256628;28;20479;-70
2021/03/11 02:37:46;;;;;;;18.38;14.20;;;;;;;6.48;88.29;99844.53;5257362;28;20060;-70
2021/03/11 02:40:27;;;;;;;18.23;13.40;;;;;;;6.51;88.44;99827.81;5261754;28;20112;-70
2021/03/11 02:43:00;;;;;;;19.05;14.98;;;;;;;6.50;88.98;99832.19;5254834;28;20028;-69
2021/03/11 02:45:33;;;;;;;16.77;14.07;;;;;;;6.51;89.10;99851.22;5257998;28;20021;-70
2021/03/11 02:48:08;;;;;;;18.83;14.45;;;;;;;6.53;89.09;99850.16;5256447;28;20487;-69
2021/03/11 02:50:40;;;;;;;17.33;14.23;;;;;;;6.53;89.03;99834.53;5241170;28;20024;-70
2021/03/11 02:53:12;;;;;;;18.05;13.88;;;;;;;6.54;89.04;99820.56;5257233;28;20036;-69
2021/03/11 02:55:44;;;;;;;16.73;14.00;;;;;;;6.57;89.21;99822.09;5254988;28;20025;-70
2021/03/11 02:58:16;;;;;;;17.52;14.00;;;;;;;6.59;88.71;99822.78;5256254;28;20451;-70
2021/03/11 03:00:49;;;;;;;16.08;14.07;;;;;;;6.62;88.68;99814.72;5253750;28;20028;-70
2021/03/11 03:03:22;;;;;;;17.53;14.27;;;;;;;6.62;88.95;99790.47;5261966;28;20390;-69
2021/03/11 03:05:55;;;;;;;17.85;14.40;;;;;;;6.64;88.09;99780.78;5248476;28;20036;-69
2021/03/11 03:08:26;;;;;;;;;;;;;;;6.76;87.58;99774.50;5260394;28;20075;-71
2021/03/11 03:10:59;;;;;;;16.85;13.45;;;;;;;6.73;88.51;99774.75;5251846;28;19995;-71
2021/03/11 03:13:31;;;;;;;15.63;13.48;;;;;;;6.66;88.17;99734.59;5257035;28;20064;-69
2021/03/11 03:16:02;;;;;;;16.23;13.82;;;;;;;6.81;87.98;99757.53;5253661;28;20810;-71
2021/03/11 03:18:34;;;;;;;16.75;13.95;;;;;;;6.85;87.69;99755.47;5255513;28;20056;-69
2021/03/11 03:21:08;;;;;;;17.73;13.80;;;;;;;6.86;87.33;99749.34;5262950;28;20051;-69
2021/03/11 03:23:40;;;;;;;17.08;14.70;;;;;;;6.91;87.50;99736.72;5255164;28;20025;-69
2021/03/11 03:26:12;;;;;;;18.15;14.38;;;;;;;6.95;87.19;99727.69;5259118;28;20028;-70
2021/03/11 03:28:44;;;;;;;16.27;13.80;;;;;;;6.98;87.52;99732.66;5251110;28;20036;-69
2021/03/11 03:31:15;;;;;;;16.58;13.77;;;;;;;7.02;86.95;99725.38;5254062;28;20039;-70
2021/03/11 03:33:46;;;;;;;17.80;14.65;;;;;;;7.03;87.19;99714.81;5253702;28;20103;-69
2021/03/11 03:36:18;;;;;;;17.13;14.15;;;;;;;7.07;87.13;99723.19;5250803;28;20608;-70
2021/03/11 03:38:49;;;;;;;17.63;14.65;;;;;;;7.07;86.99;99718.78;5253008;28;20491;-70
2021/03/11 03:41:26;;;;;;;17.75;14.77;;;;;;;7.13;86.83;99724.44;5253944;28;20033;-69
2021/03/11 03:43:58;;;;;;;19.83;16.35;;;;;;;7.12;88.33;99702.75;5256665;28;20071;-70
2021/03/11 03:46:30;;;;;;;20.33;16.60;;;;;;;7.13;88.03;99708.81;5254288;28;20041;-70
2021/03/11 03:49:03;;;;;;;21.20;16.13;;;;;;;7.15;88.54;99709.50;5259999;28;20039;-69
2021/03/11 03:51:37;;;;;;;24.77;17.77;;;;;;;7.19;88.69;99705.66;5261502;28;20028;-70
2021/03/11 03:54:11;;;;;;;21.85;16.52;;;;;;;7.17;88.88;99705.81;5259622;28;20116;-70
2021/03/11 03:56:45;;;;;;;21.85;16.85;;;;;;;7.24;88.58;99711.28;5263314;28;20063;-70
2021/03/11 03:59:21;;;;;;;22.17;16.50;;;;;;;7.20;89.35;99699.50;5260513;28;20043;-70
2021/03/11 04:01:57;;;;;;;24.00;18.77;;;;;;;7.25;89.63;99694.69;5261800;28;20033;-70
2021/03/11 04:04:32;;;;;;;23.52;17.58;;;;;;;7.26;89.56;99685.91;5262346;28;20482;-70
2021/03/11 04:07:07;;;;;;;21.73;16.48;;;;;;;7.34;89.28;99698.25;5259768;28;20700;-70
2021/03/11 04:09:39;;;;;;;23.13;17.85;;;;;;;7.37;89.45;99695.38;5259821;28;20029;-70
2021/03/11 04:12:13;;;;;;;22.42;17.98;;;;;;;7.38;89.43;99681.38;5261258;28;20041;-70
2021/03/11 04:14:45;;;;;;;22.33;17.58;;;;;;;7.38;89.05;99660.53;5238008;28;20044;-70
2021/03/11 04:17:17;;;;;;;19.63;16.57;;;;;;;7.45;89.13;99656.41;5262574;28;20573;-70
2021/03/11 04:19:49;;;;;;;23.02;17.50;;;;;;;7.47;89.19;99644.09;5259597;28;20029;-71
2021/03/11 04:22:20;;;;;;;21.10;16.63;;;;;;;7.51;88.68;99635.84;5260530;28;20024;-71
2021/03/11 04:24:52;;;;;;;21.15;16.80;;;;;;;7.55;88.78;99637.22;5266920;28;20039;-71
2021/03/11 04:27:24;;;;;;;19.92;16.23;;;;;;;7.54;88.09;99632.97;5262513;28;20602;-71
2021/03/11 04:29:56;;;;;;;21.95;16.52;;;;;;;7.60;88.33;99643.78;5262846;28;20554;-71
2021/03/11 04:32:28;;;;;;;21.48;16.63;;;;;;;7.66;88.13;99633.63;5256829;28;20103;-70
2021/03/11 04:35:00;;;;;;;18.98;15.30;;;;;;;7.72;87.55;99633.03;5257827;28;20105;-70
2021/03/11 04:37:32;;;;;;;19.05;15.52;;;;;;;7.74;87.66;99622.50;5255014;28;20033;-70
2021/03/11 04:40:05;;;;;;;19.83;15.32;;;;;;;7.77;86.89;99594.34;5256180;28;20507;-71
2021/03/11 04:42:37;;;;;;;18.75;14.80;;;;;;;7.81;87.13;99620.97;5258893;28;20056;-70
2021/03/11 04:45:09;;;;;;;18.00;13.90;;;;;;;7.80;86.51;99595.81;5256853;28;20111;-70
2021/03/11 04:47:41;;;;;;;18.98;14.60;;;;;;;7.88;86.73;99622.03;5254230;28;20387;-71
2021/03/11 04:50:13;;;;;;;16.77;13.07;;;;;;;7.90;86.63;99614.06;5253921;28;20505;-69
2021/03/11 04:52:45;;;;;;;16.83;13.50;;;;;;;7.93;86.29;99608.56;5239418;28;20032;-70
2021/03/11 04:55:16;;;;;;;16.60;13.88;;;;;;;7.97;86.09;99615.94;5239557;28;20477;-69
2021/03/11 04:57:47;;;;;;;17.85;13.18;;;;;;;8.01;85.91;99606.06;5260927;28;20099;-69
2021/03/11 05:00:20;;;;;;;15.85;12.93;;;;;;;8.00;86.09;99615.66;5256815;28;20029;-69
2021/03/11 05:02:54;;;;;;;15.32;12.18;;;;;;;8.08;85.67;99611.53;5255939;28;20078;-69
2021/03/11 05:05:46;;;;;;;17.58;13.30;;;;;;;8.13;85.84;99625.75;5261635;28;20035;-69
2021/03/11 05:08:17;;;;;;;16.02;12.52;;;;;;;8.13;85.70;99612.72;5261441;28;20131;-70
2021/03/11 05:10:49;;;;;;;15.10;12.20;;;;;;;8.16;85.61;99617.66;5258408;28;20141;-70
2021/03/11 05:13:20;;;;;;;15.02;12.30;;;;;;;8.20;85.26;99607.75;5259590;28;20032;-69
2021/03/11 05:15:51;;;;;;;14.13;11.95;;;;;;;8.22;85.41;99604.03;5262108;28;20449;-70
2021/03/11 05:18:23;;;;;;;16.00;11.95;;;;;;;8.24;85.28;99604.69;5258130;28;20154;-69
2021/03/11 05:20:55;;;;;;;13.27;11.30;;;;;;;8.26;85.29;99594.13;5254132;28;20613;-70
2021/03/11 05:23:26;;;;;;;15.70;11.77;;;;;;;8.32;84.57;99584.88;5239626;28;20464;-69
2021/03/11 05:25:57;;;;;;;13.50;11.43;;;;;;;8.32;84.75;99575.25;5257441;28;20040;-69
2021/03/11 05:28:28;;;;;;;14.40;11.95;;;;;;;8.38;84.57;99589.56;5262103;28;20029;-70
2021/03/11 05:31:00;;;;;;;16.10;11.77;;;;;;;8.35;84.50;99600.25;5255464;28;20628;-69
2021/03/11 05:33:31;;;;;;;13.52;10.77;;;;;;;8.44;84.47;99568.06;5259853;28;20119;-70
2021/03/11 05:36:03;;;;;;;14.75;10.90;;;;;;;8.46;84.12;99551.31;5258410;28;20025;-69
2021/03/11 05:38:34;;;;;;;13.68;11.15;;;;;;;8.47;84.21;99558.16;5239521;28;20040;-69
2021/03/11 05:41:06;;;;;;;13.38;10.43;;;;;;;8.53;83.79;99570.63;5259452;28;20158;-69
2021/03/11 05:43:37;;;;;;;13.23;10.43;;;;;;;8.52;83.98;99560.31;5259928;28;20032;-69
2021/03/11 05:46:10;;;;;;;13.13;10.60;;;;;;;8.56;83.77;99553.88;5256071;28;20114;-70
2021/03/11 05:48:42;;;;;;;13.00;10.63;;;;;;;8.60;83.85;99551.75;5258443;28;20037;-70
2021/03/11 05:51:15;;;;;;;13.65;11.15;;;;;;;8.66;83.45;99561.59;5256392;28;20052;-70
2021/03/11 05:53:46;;;;;;;13.70;10.67;;;;;;;8.63;83.96;99554.88;5257705;28;20112;-70
2021/03/11 05:56:18;;;;;;;14.40;10.77;;;;;;;8.64;83.62;99550.50;5256470;28;20883;-70
2021/03/11 05:58:49;;;;;;;15.10;11.07;;;;;;;8.69;83.60;99553.47;5255696;28;20045;-70
2021/03/11 06:01:24;;;;;;;12.35;10.20;;;;;;;8.71;83.94;99548.91;5256404;28;20119;-69
2021/03/11 06:03:56;;;;;;;14.18;10.70;;;;;;;8.72;83.91;99540.94;5257462;28;20025;-70
2021/03/11 06:06:30;;;;;;;13.55;10.82;;;;;;;8.69;84.16;99532.59;5259762;28;20043;-69
2021/03/11 06:09:02;;;;;;;14.02;10.57;;;;;;;8.70;84.09;99534.22;5256840;28;20367;-70
2021/03/11 06:11:35;;;;;;;14.43;10.85;;;;;;;8.76;84.08;99536.25;5255405;28;20143;-70
2021/03/11 06:14:07;;;;;;;12.18;10.10;;;;;;;8.77;84.26;99535.28;5256136;28;20037;-69
2021/03/11 06:16:43;;;;;;;13.55;10.95;;;;;;;8.73;84.17;99536.53;5257351;28;20566;-70
2021/03/11 06:19:16;;;;;;;14.65;10.35;;;;;;;8.77;84.54;99536.09;5253841;28;20428;-69
2021/03/11 06:21:48;;;;;;;12.43;10.68;;;;;;;8.82;84.29;99535.63;5259497;28;20035;-70
2021/03/11 06:24:21;;;;;;;13.05;10.40;;;;;;;8.84;84.10;99502.34;5258240;28;20033;-71
2021/03/11 06:26:52;;;;;;;13.38;10.57;;;;;;;8.81;84.42;99525.34;5258806;28;20626;-71
2021/03/11 06:29:38;;;;;;;13.32;10.27;;;;;;;8.83;84.62;99524.22;5252949;28;20032;-69
2021/03/11 06:32:10;;;;;;;14.75;11.15;;;;;;;8.82;85.39;99526.97;5258858;28;20502;-71
2021/03/11 06:34:43;;;;;;;12.25;9.57;;;;;;;8.83;85.60;99528.63;5255892;28;20032;-70
2021/03/11 06:37:15;;;;;;;16.15;11.45;;;;;;;8.80;85.44;99527.13;5253918;28;20040;-71
2021/03/11 06:39:46;;;;;;;13.80;9.93;;;;;;;8.83;85.69;99526.03;5260350;28;20036;-71
2021/03/11 06:42:24;;;;;;;15.25;10.32;;;;;;;8.81;86.60;99530.56;5256903;28;20107;-70
2021/03/11 06:44:57;;;;;;;12.98;10.25;;;;;;;8.76;86.63;99547.50;5257397;28;20461;-70
2021/03/11 06:47:28;;;;;;;12.32;9.48;;;;;;;8.74;86.89;99530.34;5259655;28;20083;-69
2021/03/11 06:50:01;;;;;;;14.38;10.15;;;;;;;8.67;87.13;99535.34;5263136;28;20032;-71
2021/03/11 06:52:32;;;;;;;13.55;9.20;;;;;;;8.75;88.09;99540.66;5253114;28;20047;-70
2021/03/11 06:55:09;;;;;;;13.40;9.80;;;;;;;8.74;88.23;99551.22;5254667;28;20025;-71
2021/03/11 06:57:41;;;;;;;14.52;9.52;;;;;;;8.74;89.12;99546.00;5259702;28;20639;-72
2021/03/11 07:00:18;;;;;;;12.35;8.70;;;;;;;8.74;89.31;99530.34;5236546;28;20111;-71
2021/03/11 07:03:00;;;;;;;12.63;9.60;;;;;;;8.76;89.64;99549.31;5258116;28;20028;-71
2021/03/11 07:05:37;;;;;;;14.32;10.05;;;;;;;8.78;89.81;99548.16;5258772;28;20020;-71
2021/03/11 07:08:16;;;;;;;13.68;8.98;;;;;;;8.77;89.97;99543.09;5253652;28;20448;-71
2021/03/11 07:10:48;;;;;;;14.20;9.82;;;;;;;8.71;90.15;99547.16;5255561;28;20036;-71
2021/03/11 07:13:19;;;;;;;14.38;9.95;;;;;;;8.77;89.83;99558.78;5251984;28;20060;-71
2021/03/11 07:15:55;;;;;;;12.27;9.23;;;;;;;8.79;89.89;99554.22;5257731;28;20028;-71
2021/03/11 07:18:26;;;;;;;11.48;9.02;;;;;;;8.79;89.55;99549.00;5255438;28;20028;-71
2021/03/11 07:20:58;;;;;;;12.68;9.10;;;;;;;8.80;89.09;99540.19;5260131;28;20416;-71
2021/03/11 07:23:29;;;;;;;13.10;9.38;;;;;;;8.88;88.83;99532.41;5260025;28;20432;-71
2021/03/11 07:26:07;;;;;;;11.45;9.35;;;;;;;8.94;88.81;99538.81;5257704;28;20059;-72
2021/03/11 07:28:39;;;;;;;14.43;8.73;;;;;;;8.97;88.84;99525.47;5257694;28;20029;-71
2021/03/11 07:31:11;;;;;;;12.77;8.98;;;;;;;8.94;87.88;99505.72;5254958;28;20035;-71
2021/03/11 07:33:46;;;;;;;10.77;8.57;;;;;;;9.02;87.91;99528.47;5252277;28;20115;-70
2021/03/11 07:36:17;;;;;;;13.02;8.57;;;;;;;9.11;87.46;99511.84;5255539;28;20475;-70
2021/03/11 07:38:50;;;;;;;11.32;7.57;;;;;;;9.10;87.01;99488.50;5256654;28;20276;-71
2021/03/11 07:41:22;;;;;;;14.32;7.63;;;;;;;9.20;86.29;99497.84;5253475;28;20029;-70
2021/03/11 07:43:54;;;;;;;15.10;6.35;;;;;;;9.26;85.56;99491.22;5255770;28;20039;-70
2021/03/11 07:46:25;;;;;;;14.45;6.45;;;;;;;9.34;85.08;99490.44;5253296;28;20702;-70
2021/03/11 07:48:57;;;;;;;17.52;6.38;;;;;;;9.43;84.58;99485.09;5256938;28;20417;-70
2021/03/11 07:51:30;;;;;;;15.05;5.93;;;;;;;9.50;84.57;99482.66;5254725;28;20371;-70
2021/03/11 07:54:02;;;;;;;11.05;5.40;;;;;;;9.59;83.56;99479.13;5253702;28;20024;-70
2021/03/11 07:56:33;;;;;;;14.57;5.60;;;;;;;9.60;83.42;99474.72;5249160;28;20024;-71
2021/03/11 07:59:05;;;;;;;13.20;5.18;;;;;;;9.58;82.71;99468.81;5253736;28;20049;-71
2021/03/11 08:01:46;;;;;;;17.25;5.13;;;;;;;9.67;82.49;99468.69;5256608;28;20067;-71
2021/03/11 08:04:19;;;;;;;15.60;5.25;;;;;;;9.77;81.41;99493.88;5255265;28;20032;-70
2021/03/11 08:06:51;;;;;;;14.80;5.30;;;;;;;9.85;81.44;99486.06;5256421;28;20032;-69
2021/03/11 08:09:36;;;;;;;10.18;4.60;;;;;;;9.94;81.68;99477.28;5257319;28;20043;-71
2021/03/11 08:12:40;;;;;;;12.10;4.35;;;;;;;10.02;80.18;99479.09;5260477;28;20505;-69
2021/03/11 08:15:14;;;;;;;14.40;4.65;;;;;;;10.07;79.50;99472.38;5256596;28;20036;-70
2021/03/11 08:17:47;;;;;;;12.55;3.95;;;;;;;10.17;76.28;99467.03;5258393;28;20120;-70
2021/03/11 08:20:18;;;;;;;;;;;;;;;10.26;76.03;99460.03;5256266;28;20111;-71
2021/03/11 08:22:53;;;;;;;11.32;3.70;;;;;;;10.36;76.08;99463.31;5250928;28;19923;-70
2021/03/11 08:25:36;;;;;;;14.02;3.72;;;;;;;10.43;74.60;99466.91;5255436;28;20045;-70
2021/03/11 08:28:08;;;;;;;;;;;;;;;10.57;73.02;99454.97;5252361;28;20036;-70
2021/03/11 08:30:42;;;;;;;13.35;3.53;;;;;;;10.65;72.37;99462.84;5242423;28;20401;-70
2021/03/11 08:33:34;;;;;;;13.02;3.22;;;;;;;10.67;72.00;99439.91;5252025;28;20401;-70
2021/03/11 08:36:05;;;;;;;13.90;3.05;;;;;;;10.67;70.11;99426.81;5257470;28;20146;-69
2021/03/11 08:38:38;;;;;;;18.42;4.10;;;;;;;10.75;68.68;99433.84;5238667;28;20021;-69
2021/03/11 08:41:14;;;;;;;17.50;3.90;;;;;;;10.80;68.14;99429.75;5259309;28;20043;-69
2021/03/11 08:43:45;;;;;;;14.30;3.58;;;;;;;10.93;68.52;99429.22;5260288;28;20450;-71
2021/03/11 08:46:19;;;;;;;20.03;4.40;;;;;;;11.03;68.06;99426.44;5254355;28;20116;-71
2021/03/11 08:48:57;;;;;;;22.15;4.72;;;;;;;11.18;67.88;99435.25;5257927;28;20683;-71
2021/03/11 08:51:28;;;;;;;18.73;4.28;;;;;;;11.29;66.70;99442.75;5257449;28;20312;-71
2021/03/11 08:54:00;;;;;;;20.80;4.47;;;;;;;11.31;65.68;99432.88;5258375;28;20033;-70
2021/03/11 08:56:42;;;;;;;24.77;4.90;;;;;;;11.36;66.38;99421.88;5260877;28;20471;-70
2021/03/11 08:59:17;;;;;;;20.52;4.70;;;;;;;11.38;64.23;99431.22;5256532;28;20052;-70
2021/03/11 09:01:50;;;;;;;21.85;5.60;;;;;;;11.50;63.12;99436.09;5255097;28;20036;-70
2021/03/11 09:04:24;;;;;;;;;;;;;;;11.59;64.56;99429.81;5255583;28;20032;-70
2021/03/11 09:07:02;;;;;;;;;;;;;;;11.62;61.29;99440.78;5254626;28;19920;-70
2021/03/11 09:09:50;;;;;;;29.00;6.47;;;;;;;11.69;63.02;99433.06;5258602;28;19916;-70
2021/03/11 09:12:29;;;;;;;26.77;6.53;;;;;;;11.78;61.70;99444.31;5257964;28;20371;-70
2021/03/11 09:15:04;;;;;;;26.67;6.32;;;;;;;11.68;60.14;99407.81;5254447;28;20432;-70
2021/03/11 09:17:37;;;;;;;26.88;6.03;;;;;;;11.73;59.26;99434.34;5254806;28;20063;-70
2021/03/11 09:20:15;;;;;;;25.23;5.50;;;;;;;11.82;58.80;99425.47;5256618;28;20030;-70
2021/03/11 09:22:48;;;;;;;25.85;6.18;;;;;;;11.76;58.72;99417.44;5257457;28;20749;-70
2021/03/11 09:25:35;;;;;;;27.15;5.32;;;;;;;11.89;58.95;99426.44;5261052;28;20033;-70
2021/03/11 09:28:10;;;;;;;22.45;5.70;;;;;;;11.93;57.58;99429.50;5255723;28;20028;-70
2021/03/11 09:30:41;;;;;;;26.95;6.10;;;;;;;12.06;58.17;99436.81;5239456;28;20036;-70
2021/03/11 09:33:22;;;;;;;23.00;5.47;;;;;;;12.08;56.60;99419.06;5259474;28;20505;-70
2021/03/11 09:35:54;;;;;;;23.50;5.05;;;;;;;12.05;56.96;99435.19;5259731;28;20024;-70
2021/03/11 09:38:26;;;;;;;22.67;4.88;;;;;;;12.10;56.21;99424.97;5255396;28;20488;-70
2021/03/11 09:40:58;;;;;;;25.95;6.00;;;;;;;12.06;57.73;99436.81;5254938;28;20028;-70
2021/03/11 09:43:37;;;;;;;27.02;5.80;;;;;;;12.14;57.86;99436.75;5247527;28;20177;-70
2021/03/11 09:46:17;;;;;;;24.85;5.55;;;;;;;12.06;56.10;99434.19;5257072;28;20033;-70
2021/03/11 09:48:54;;;;;;;19.35;5.18;;;;;;;12.02;56.84;99459.97;5257481;28;20433;-72
2021/03/11 09:51:33;;;;;;;26.42;5.45;;;;;;;12.03;56.05;99418.78;5261435;28;20032;-70
2021/03/11 09:54:06;;;;;;;23.48;5.18;;;;;;;12.01;55.35;99468.00;5256024;28;20580;-70
2021/03/11 09:56:40;;;;;;;23.02;5.28;;;;;;;11.98;55.29;99448.19;5255025;28;20037;-70
2021/03/11 09:59:14;;;;;;;19.15;5.10;;;;;;;12.06;56.88;99426.31;5256242;28;20051;-70
2021/03/11 10:01:48;;;;;;;19.58;4.93;;;;;;;12.16;56.31;99424.28;5256098;28;20387;-70
2021/03/11 10:04:29;;;;;;;24.90;5.03;;;;;;;12.15;55.02;99441.00;5240333;28;20052;-70
2021/03/11 10:07:02;;;;;;;27.42;6.43;;;;;;;12.11;55.62;99442.34;5255859;28;20043;-70
2021/03/11 10:09:41;;;;;;;24.98;4.95;;;;;;;12.07;55.72;99435.81;5257269;28;20083;-70
2021/03/11 10:12:13;;;;;;;27.02;5.53;;;;;;;12.03;56.44;99458.16;5255169;28;20493;-70
2021/03/11 10:14:44;;;;;;;23.02;5.72;;;;;;;12.01;54.61;99442.59;5255519;28;20028;-70
2021/03/11 10:17:19;;;;;;;25.95;5.55;;;;;;;11.99;55.15;99470.00;5255626;28;20646;-70
2021/03/11 10:19:50;;;;;;;20.10;5.22;;;;;;;11.90;54.55;99453.50;5256322;28;20033;-70
2021/03/11 10:22:22;;;;;;;25.98;5.28;;;;;;;11.83;55.12;99458.59;5252483;28;20390;-71
2021/03/11 10:24:54;;;;;;;21.55;5.00;;;;;;;11.80;55.89;99460.72;5252949;28;20072;-71
2021/03/11 10:27:32;;;;;;;16.33;4.45;;;;;;;11.81;54.22;99459.72;5258743;28;20063;-71
2021/03/11 10:30:10;;;;;;;19.90;5.05;;;;;;;11.79;54.42;99464.34;5252651;28;20025;-71
2021/03/11 10:32:43;;;;;;;22.50;4.97;;;;;;;11.78;54.29;99462.69;5253521;28;20062;-71
2021/03/11 10:35:23;;;;;;;;;;;;;;;11.93;53.75;99464.47;5256764;28;20097;-71
2021/03/11 10:37:55;;;;;;;21.40;4.78;;;;;;;12.00;54.28;99469.00;5249135;28;19917;-71
2021/03/11 10:40:26;;;;;;;18.70;4.72;;;;;;;12.17;53.32;99454.78;5250150;28;20044;-72
2021/03/11 10:42:58;;;;;;;26.52;5.32;;;;;;;12.28;53.21;99456.22;5257354;28;20033;-71
2021/03/11 10:45:38;;;;;;;18.73;5.15;;;;;;;12.50;52.84;99468.53;5252283;28;20082;-71
2021/03/11 10:48:10;;;;;;;21.02;4.60;;;;;;;12.50;53.33;99478.19;5255092;28;20037;-71
2021/03/11 10:50:43;;;;;;;17.88;5.00;;;;;;;12.38;52.76;99475.97;5254052;28;20028;-71
2021/03/11 10:53:19;;;;;;;20.83;4.80;;;;;;;12.41;53.28;99480.06;5257267;28;20047;-71
2021/03/11 10:55:53;;;;;;;20.17;5.28;;;;;;;12.44;52.88;99484.97;5235449;28;20020;-71
2021/03/11 10:58:25;;;;;;;;;;;;;;;12.62;52.12;99484.69;5251997;28;20134;-71
2021/03/11 11:01:08;;;;;;;21.50;5.25;;;;;;;12.64;51.64;99487.94;5255415;28;20378;-71
2021/03/11 11:03:41;;;;;;;19.00;4.53;;;;;;;12.55;51.17;99499.50;5255391;28;20041;-71
2021/03/11 11:06:12;;;;;;;22.88;5.22;;;;;;;12.48;50.63;99477.56;5257320;28;20082;-71
2021/03/11 11:08:45;;;;;;;19.40;4.43;;;;;;;12.39;52.03;99518.84;5254548;28;20198;-71
2021/03/11 11:11:19;;;;;;;23.63;5.05;;;;;;;12.28;52.14;99506.91;5257020;28;20043;-71
2021/03/11 11:13:51;;;;;;;25.83;4.78;;;;;;;12.25;52.24;99490.69;5250813;28;20038;-71
2021/03/11 11:16:23;;;;;;;16.40;4.78;;;;;;;12.41;53.18;99509.75;5254193;28;20035;-71
2021/03/11 11:18:55;;;;;;;20.02;4.57;;;;;;;12.64;51.68;99507.13;5255814;28;20086;-72
2021/03/11 11:21:28;;;;;;;22.77;4.55;;;;;;;12.66;50.15;99509.59;5255919;28;20425;-70
2021/03/11 11:23:59;;;;;;;;;;;;;;;12.85;52.17;99517.00;5259739;28;20032;-70
2021/03/11 11:26:30;;;;;;;18.97;3.70;;;;;;;12.86;50.51;99528.31;5255049;28;19920;-73
2021/03/11 11:29:05;;;;;;;19.52;3.90;;;;;;;12.83;50.64;99529.50;5253258;28;20294;-70
2021/03/11 11:31:36;;;;;;;20.67;4.25;;;;;;;12.84;51.27;99532.94;5253532;28;20112;-70
2021/03/11 11:34:08;;;;;;;15.70;3.60;;;;;;;12.77;50.69;99556.50;5253914;28;20504;-70
2021/03/11 11:36:41;;;;;;;25.98;4.45;;;;;;;12.66;50.98;99538.50;5252225;28;20367;-70
2021/03/11 11:39:13;;;;;;;14.20;3.42;;;;;;;12.60;50.99;99558.41;5256907;28;20029;-70
2021/03/11 11:41:45;;;;;;;16.37;4.33;;;;;;;12.58;50.88;99560.41;5255741;28;20111;-70
2021/03/11 11:44:17;;;;;;;22.80;3.95;;;;;;;12.52;51.88;99552.38;5254601;28;20025;-70
2021/03/11 11:46:49;;;;;;;13.75;3.35;;;;;;;12.57;51.81;99568.44;5253763;28;20040;-70
2021/03/11 11:49:20;;;;;;;19.00;4.03;;;;;;;12.76;51.25;99549.56;5259047;28;20087;-70
2021/03/11 11:51:51;;;;;;;19.85;3.83;;;;;;;12.95;50.40;99557.97;5252559;28;20021;-70
2021/03/11 11:54:23;;;;;;;14.77;3.45;;;;;;;13.12;49.82;99546.34;5256525;28;20036;-70
2021/03/11 11:56:54;;;;;;;17.10;3.42;;;;;;;13.29;49.75;99553.09;5256600;28;20165;-70
2021/03/11 11:59:27;;;;;;;16.52;4.30;;;;;;;13.41;49.92;99571.91;5255853;28;20552;-70
2021/03/11 12:01:59;;;;;;;16.13;3.67;;;;;;;13.50;49.49;99576.09;5241081;28;20036;-70
2021/03/11 12:04:31;;;;;;;17.50;3.33;;;;;;;13.44;50.00;99562.81;5253696;28;20025;-70
2021/03/11 12:07:02;;;;;;;12.10;3.00;;;;;;;13.44;49.67;99578.63;5251401;28;20025;-70
2021/03/11 12:09:34;;;;;;;14.98;3.72;;;;;;;13.34;50.27;99577.06;5259458;28;20044;-70
2021/03/11 12:12:06;;;;;;;13.30;3.35;;;;;;;13.27;49.67;99575.34;5239064;28;20024;-70
2021/03/11 12:14:37;;;;;;;15.85;3.80;;;;;;;13.25;50.29;99586.00;5262984;28;20403;-70
2021/03/11 12:17:09;;;;;;;18.45;3.85;;;;;;;13.26;50.48;99568.41;5259702;28;20660;-70
2021/03/11 12:19:40;;;;;;;15.10;3.70;;;;;;;13.31;51.34;99619.50;5258610;28;20494;-70
2021/03/11 12:22:11;;;;;;;18.10;4.28;;;;;;;13.20;50.22;99595.41;5261264;28;20017;-71
2021/03/11 12:24:42;;;;;;;18.33;4.00;;;;;;;13.06;50.47;99591.75;5243010;28;20039;-70
2021/03/11 12:27:14;;;;;;;18.20;4.43;;;;;;;12.80;50.16;99578.97;5257595;28;20215;-71
2021/03/11 12:29:45;;;;;;;21.48;4.03;;;;;;;12.75;50.46;99590.00;5258331;28;20032;-71
2021/03/11 12:32:16;;;;;;;21.52;4.35;;;;;;;12.60;51.86;99589.94;5254561;28;20039;-71
2021/03/11 12:34:48;;;;;;;18.60;4.10;;;;;;;12.62;52.16;99587.97;5259461;28;20028;-70
2021/03/11 12:37:19;;;;;;;18.35;3.72;;;;;;;12.57;52.21;99592.09;5256626;28;20916;-70
2021/03/11 12:39:51;;;;;;;24.10;4.28;;;;;;;12.48;51.95;99604.47;5258141;28;20474;-70
2021/03/11 12:42:22;;;;;;;23.20;4.97;;;;;;;12.46;52.20;99597.72;5256207;28;20032;-70
2021/03/11 12:44:53;;;;;;;20.00;4.28;;;;;;;12.38;51.59;99607.28;5258698;28;20122;-70
2021/03/11 12:47:25;;;;;;;21.00;4.05;;;;;;;12.32;52.11;99605.38;5261456;28;20048;-70
2021/03/11 12:49:56;;;;;;;24.60;4.97;;;;;;;12.33;52.50;99608.81;5252917;28;20067;-70
2021/03/11 12:52:27;;;;;;;19.70;4.68;;;;;;;12.34;51.70;99608.63;5235743;28;20580;-70
2021/03/11 12:54:59;;;;;;;19.02;3.85;;;;;;;12.28;51.98;99601.44;5250939;28;20029;-71
2021/03/11 12:57:30;;;;;;;20.00;4.38;;;;;;;12.28;51.68;99616.38;5258910;28;20376;-70
2021/03/11 13:00:05;;;;;;;13.90;3.20;;;;;;;12.49;51.28;99618.41;5251774;28;20028;-71
2021/03/11 13:02:36;;;;;;;20.85;4.63;;;;;;;12.53;51.43;99630.19;5255638;28;20032;-70
2021/03/11 13:05:08;;;;;;;17.55;4.82;;;;;;;12.58;51.24;99622.66;5259415;28;20028;-70
2021/03/11 13:07:39;;;;;;;16.27;3.75;;;;;;;12.53;51.11;99624.94;5255213;28;20021;-70
2021/03/11 13:10:11;;;;;;;16.65;3.72;;;;;;;12.63;51.73;99625.56;5259320;28;20028;-70
2021/03/11 13:12:43;;;;;;;18.27;3.42;;;;;;;12.60;51.12;99616.19;5254341;28;20025;-70
2021/03/11 13:15:16;;;;;;;12.52;3.25;;;;;;;12.66;51.75;99635.72;5254200;28;20507;-71
2021/03/11 13:17:49;;;;;;;16.23;3.65;;;;;;;12.55;49.90;99625.59;5256785;28;20613;-70
2021/03/11 13:20:21;;;;;;;20.85;4.05;;;;;;;12.48;50.68;99641.22;5257581;28;20032;-70